sensor_id;sensor_type;location;lat;lon;timestamp;pressure;altitude;pressure_sealevel;temperature;humidity
5146;BME280;2591;48.144;15.152;2023-07-22T00:01:40;74736.97;;;-144.65;82.11
5146;BME280;2591;48.144;15.152;2023-07-22T00:04:28;74741.03;;;-144.65;82.13
5146;BME280;2591;48.144;15.152;2023-07-22T00:07:14;74745.13;;;-144.65;82.19
5146;BME280;2591;48.144;15.152;2023-07-22T00:10:01;74751.22;;;-144.65;82.44
5146;BME280;2591;48.144;15.152;2023-07-22T00:12:47;74753.28;;;-144.65;82.42
5146;BME280;2591;48.144;15.152;2023-07-22T00:15:33;74761.41;;;-144.65;82.81
5146;BME280;2591;48.144;15.152;2023-07-22T00:18:20;74757.34;;;-144.65;83.15
5146;BME280;2591;48.144;15.152;2023-07-22T00:21:08;74761.41;;;-144.65;82.94
5146;BME280;2591;48.144;15.152;2023-07-22T00:23:54;74769.56;;;-144.65;83.36
5146;BME280;2591;48.144;15.152;2023-07-22T00:26:41;74767.53;;;-144.65;83.27
5146;BME280;2591;48.144;15.152;2023-07-22T00:29:28;74761.41;;;-144.65;82.70
5146;BME280;2591;48.144;15.152;2023-07-22T00:32:14;74769.56;;;-144.65;82.91
5146;BME280;2591;48.144;15.152;2023-07-22T00:35:01;74777.72;;;-144.65;83.40
5146;BME280;2591;48.144;15.152;2023-07-22T00:37:49;74785.88;;;-144.65;83.36
5146;BME280;2591;48.144;15.152;2023-07-22T00:40:35;74802.19;;;-144.65;84.36
5146;BME280;2591;48.144;15.152;2023-07-22T00:43:22;74806.25;;;-144.65;84.77
5146;BME280;2591;48.144;15.152;2023-07-22T00:46:11;74806.25;;;-144.65;84.86
5146;BME280;2591;48.144;15.152;2023-07-22T00:48:58;74808.28;;;-144.65;84.90
5146;BME280;2591;48.144;15.152;2023-07-22T00:51:44;74818.47;;;-144.65;85.10
5146;BME280;2591;48.144;15.152;2023-07-22T00:54:32;74812.38;;;-144.65;84.89
5146;BME280;2591;48.144;15.152;2023-07-22T00:57:19;74802.19;;;-144.65;84.47
5146;BME280;2591;48.144;15.152;2023-07-22T01:00:06;74810.34;;;-144.65;84.49
5146;BME280;2591;48.144;15.152;2023-07-22T01:02:56;74810.34;;;-144.65;83.93
5146;BME280;2591;48.144;15.152;2023-07-22T01:05:43;74810.34;;;-144.65;82.70
5146;BME280;2591;48.144;15.152;2023-07-22T01:08:29;74802.19;;;-144.65;81.56
5146;BME280;2591;48.144;15.152;2023-07-22T01:11:17;74800.16;;;-144.65;80.42
5146;BME280;2591;48.144;15.152;2023-07-22T01:14:03;74808.28;;;-144.65;80.32
5146;BME280;2591;48.144;15.152;2023-07-22T01:16:50;74812.38;;;-144.65;79.69
5146;BME280;2591;48.144;15.152;2023-07-22T01:19:36;74818.47;;;-144.65;79.83
5146;BME280;2591;48.144;15.152;2023-07-22T01:22:23;74814.41;;;-144.65;79.78
5146;BME280;2591;48.144;15.152;2023-07-22T01:25:11;74814.41;;;-144.65;80.30
5146;BME280;2591;48.144;15.152;2023-07-22T01:27:58;74818.47;;;-144.65;80.45
5146;BME280;2591;48.144;15.152;2023-07-22T01:30:44;74818.47;;;-144.65;80.40
5146;BME280;2591;48.144;15.152;2023-07-22T01:33:31;74818.47;;;-144.65;80.68
5146;BME280;2591;48.144;15.152;2023-07-22T01:36:17;74830.72;;;-144.65;80.88
5146;BME280;2591;48.144;15.152;2023-07-22T01:39:04;74830.72;;;-144.65;81.07
5146;BME280;2591;48.144;15.152;2023-07-22T01:41:52;74830.72;;;-144.65;80.96
5146;BME280;2591;48.144;15.152;2023-07-22T01:44:39;74830.72;;;-144.65;81.08
5146;BME280;2591;48.144;15.152;2023-07-22T01:47:26;74826.63;;;-144.65;81.14
5146;BME280;2591;48.144;15.152;2023-07-22T01:50:13;74834.78;;;-144.65;81.58
5146;BME280;2591;48.144;15.152;2023-07-22T01:53:00;74838.88;;;-144.65;81.62
5146;BME280;2591;48.144;15.152;2023-07-22T01:55:47;74834.78;;;-144.65;81.56
5146;BME280;2591;48.144;15.152;2023-07-22T01:58:35;74838.88;;;-144.65;81.97
5146;BME280;2591;48.144;15.152;2023-07-22T02:01:21;74840.91;;;-144.65;82.28
5146;BME280;2591;48.144;15.152;2023-07-22T02:04:08;74842.94;;;-144.65;82.69
5146;BME280;2591;48.144;15.152;2023-07-22T02:06:56;74838.88;;;-144.65;82.75
5146;BME280;2591;48.144;15.152;2023-07-22T02:09:42;74844.97;;;-144.65;82.90
5146;BME280;2591;48.144;15.152;2023-07-22T02:12:30;74855.16;;;-144.65;83.20
5146;BME280;2591;48.144;15.152;2023-07-22T02:15:18;74859.25;;;-144.65;82.66
5146;BME280;2591;48.144;15.152;2023-07-22T02:18:07;74859.25;;;-144.65;82.67
5146;BME280;2591;48.144;15.152;2023-07-22T02:20:53;74863.31;;;-144.65;82.48
5146;BME280;2591;48.144;15.152;2023-07-22T02:23:40;74871.47;;;-144.65;82.90
5146;BME280;2591;48.144;15.152;2023-07-22T02:26:26;74883.69;;;-144.65;82.78
5146;BME280;2591;48.144;15.152;2023-07-22T02:29:13;74891.84;;;-144.65;82.65
5146;BME280;2591;48.144;15.152;2023-07-22T02:32:01;74904.09;;;-144.65;82.46
5146;BME280;2591;48.144;15.152;2023-07-22T02:34:48;74908.16;;;-144.65;82.22
5146;BME280;2591;48.144;15.152;2023-07-22T02:37:36;74908.16;;;-144.65;81.71
5146;BME280;2591;48.144;15.152;2023-07-22T02:40:24;74910.19;;;-144.65;81.81
5146;BME280;2591;48.144;15.152;2023-07-22T02:43:10;74926.50;;;-144.65;82.18
5146;BME280;2591;48.144;15.152;2023-07-22T02:45:56;74934.66;;;-144.65;82.28
5146;BME280;2591;48.144;15.152;2023-07-22T02:48:44;74940.78;;;-144.65;82.26
5146;BME280;2591;48.144;15.152;2023-07-22T02:51:30;74940.78;;;-144.65;81.80
5146;BME280;2591;48.144;15.152;2023-07-22T02:54:16;74936.69;;;-144.65;81.43
5146;BME280;2591;48.144;15.152;2023-07-22T02:57:03;74948.91;;;-144.65;81.42
5146;BME280;2591;48.144;15.152;2023-07-22T02:59:49;74953.00;;;-144.65;81.91
5146;BME280;2591;48.144;15.152;2023-07-22T03:02:35;74961.16;;;-144.65;82.21
5146;BME280;2591;48.144;15.152;2023-07-22T03:05:23;74961.16;;;-144.65;81.97
5146;BME280;2591;48.144;15.152;2023-07-22T03:08:11;74973.38;;;-144.65;82.00
5146;BME280;2591;48.144;15.152;2023-07-22T03:10:57;74977.47;;;-144.65;82.46
5146;BME280;2591;48.144;15.152;2023-07-22T03:13:43;74979.50;;;-144.65;82.46
5146;BME280;2591;48.144;15.152;2023-07-22T03:16:29;74977.47;;;-144.65;82.46
5146;BME280;2591;48.144;15.152;2023-07-22T03:19:17;74977.47;;;-144.65;82.26
5146;BME280;2591;48.144;15.152;2023-07-22T03:22:05;74981.53;;;-144.65;82.19
5146;BME280;2591;48.144;15.152;2023-07-22T03:24:52;74979.50;;;-144.65;82.37
5146;BME280;2591;48.144;15.152;2023-07-22T03:27:39;74983.56;;;-144.65;82.05
5146;BME280;2591;48.144;15.152;2023-07-22T03:30:26;74985.59;;;-144.65;82.44
5146;BME280;2591;48.144;15.152;2023-07-22T03:33:13;74989.69;;;-144.65;82.57
5146;BME280;2591;48.144;15.152;2023-07-22T03:36:00;75001.91;;;-144.65;83.17
5146;BME280;2591;48.144;15.152;2023-07-22T03:38:47;75003.94;;;-144.65;83.74
5146;BME280;2591;48.144;15.152;2023-07-22T03:41:34;75001.91;;;-144.65;84.15
5146;BME280;2591;48.144;15.152;2023-07-22T03:44:21;75008.03;;;-144.65;84.59
5146;BME280;2591;48.144;15.152;2023-07-22T03:47:07;75012.09;;;-144.65;84.96
5146;BME280;2591;48.144;15.152;2023-07-22T03:49:54;75018.22;;;-144.65;85.27
5146;BME280;2591;48.144;15.152;2023-07-22T03:52:40;75018.22;;;-144.65;84.92
5146;BME280;2591;48.144;15.152;2023-07-22T03:55:28;75030.44;;;-144.65;85.47
5146;BME280;2591;48.144;15.152;2023-07-22T03:58:14;75026.38;;;-144.65;85.57
5146;BME280;2591;48.144;15.152;2023-07-22T04:01:01;75038.59;;;-144.65;85.60
5146;BME280;2591;48.144;15.152;2023-07-22T04:03:47;75038.59;;;-144.65;85.87
5146;BME280;2591;48.144;15.152;2023-07-22T04:06:34;75032.47;;;-144.65;85.61
5146;BME280;2591;48.144;15.152;2023-07-22T04:09:20;75038.59;;;-144.65;85.65
5146;BME280;2591;48.144;15.152;2023-07-22T04:12:08;75030.44;;;-144.65;84.94
5146;BME280;2591;48.144;15.152;2023-07-22T04:14:54;75028.41;;;-144.65;84.50
5146;BME280;2591;48.144;15.152;2023-07-22T04:17:41;75030.44;;;-144.65;83.93
5146;BME280;2591;48.144;15.152;2023-07-22T04:20:27;75024.34;;;-144.65;83.83
5146;BME280;2591;48.144;15.152;2023-07-22T04:23:13;75022.28;;;-144.65;83.40
5146;BME280;2591;48.144;15.152;2023-07-22T04:26:02;75022.28;;;-144.65;83.59
5146;BME280;2591;48.144;15.152;2023-07-22T04:28:51;75038.59;;;-144.65;83.78
5146;BME280;2591;48.144;15.152;2023-07-22T04:31:38;75040.63;;;-144.65;83.73
5146;BME280;2591;48.144;15.152;2023-07-22T04:34:25;75046.75;;;-144.65;83.67
5146;BME280;2591;48.144;15.152;2023-07-22T04:37:11;75038.59;;;-144.65;84.04
5146;BME280;2591;48.144;15.152;2023-07-22T04:39:58;75034.53;;;-144.65;83.14
5146;BME280;2591;48.144;15.152;2023-07-22T04:42:45;75040.63;;;-144.65;82.20
5146;BME280;2591;48.144;15.152;2023-07-22T04:45:33;75038.59;;;-144.65;82.13
5146;BME280;2591;48.144;15.152;2023-07-22T04:48:20;75038.59;;;-144.65;82.00
5146;BME280;2591;48.144;15.152;2023-07-22T04:51:08;75030.44;;;-144.65;81.74
5146;BME280;2591;48.144;15.152;2023-07-22T04:53:54;75026.38;;;-144.65;81.95
5146;BME280;2591;48.144;15.152;2023-07-22T04:56:41;75026.38;;;-144.65;81.67
5146;BME280;2591;48.144;15.152;2023-07-22T04:59:27;75038.59;;;-144.65;81.75
5146;BME280;2591;48.144;15.152;2023-07-22T05:02:15;75042.69;;;-144.65;82.15
5146;BME280;2591;48.144;15.152;2023-07-22T05:05:01;75042.69;;;-144.65;81.98
5146;BME280;2591;48.144;15.152;2023-07-22T05:07:47;75036.56;;;-144.65;82.20
5146;BME280;2591;48.144;15.152;2023-07-22T05:10:34;75022.28;;;-144.65;82.50
5146;BME280;2591;48.144;15.152;2023-07-22T05:13:21;75038.59;;;-144.65;82.61
5146;BME280;2591;48.144;15.152;2023-07-22T05:16:07;75030.44;;;-144.65;82.06
5146;BME280;2591;48.144;15.152;2023-07-22T05:18:54;75044.72;;;-144.65;82.43
5146;BME280;2591;48.144;15.152;2023-07-22T05:21:41;75038.59;;;-144.65;81.55
5146;BME280;2591;48.144;15.152;2023-07-22T05:24:27;75038.59;;;-144.65;81.60
5146;BME280;2591;48.144;15.152;2023-07-22T05:27:13;75038.59;;;-144.65;82.04
5146;BME280;2591;48.144;15.152;2023-07-22T05:30:00;75044.72;;;-144.65;81.54
5146;BME280;2591;48.144;15.152;2023-07-22T05:32:46;75042.69;;;-144.65;80.87
5146;BME280;2591;48.144;15.152;2023-07-22T05:35:34;75046.75;;;-144.65;81.45
5146;BME280;2591;48.144;15.152;2023-07-22T05:38:20;75034.53;;;-144.65;80.70
5146;BME280;2591;48.144;15.152;2023-07-22T05:41:07;75030.44;;;-144.65;81.39
5146;BME280;2591;48.144;15.152;2023-07-22T05:43:53;75020.25;;;-144.65;79.42
5146;BME280;2591;48.144;15.152;2023-07-22T05:46:40;75016.19;;;-144.65;79.54
5146;BME280;2591;48.144;15.152;2023-07-22T05:49:26;75016.19;;;-144.65;79.78
5146;BME280;2591;48.144;15.152;2023-07-22T05:52:14;74997.84;;;-144.65;78.51
5146;BME280;2591;48.144;15.152;2023-07-22T05:55:01;74989.69;;;-144.65;78.37
5146;BME280;2591;48.144;15.152;2023-07-22T05:57:47;74981.53;;;-144.65;78.06
5146;BME280;2591;48.144;15.152;2023-07-22T06:00:34;74985.59;;;-144.65;78.18
5146;BME280;2591;48.144;15.152;2023-07-22T06:03:20;74975.41;;;-144.65;77.60
5146;BME280;2591;48.144;15.152;2023-07-22T06:06:07;74973.38;;;-144.65;77.40
5146;BME280;2591;48.144;15.152;2023-07-22T06:08:55;74979.50;;;-144.65;77.85
5146;BME280;2591;48.144;15.152;2023-07-22T06:11:41;74985.59;;;-144.65;78.08
5146;BME280;2591;48.144;15.152;2023-07-22T06:14:28;74979.50;;;-144.65;77.52
5146;BME280;2591;48.144;15.152;2023-07-22T06:17:14;74948.91;;;-144.65;77.55
5146;BME280;2591;48.144;15.152;2023-07-22T06:20:00;74944.84;;;-144.65;76.19
5146;BME280;2591;48.144;15.152;2023-07-22T06:22:47;74942.81;;;-144.65;76.53
5146;BME280;2591;48.144;15.152;2023-07-22T06:25:34;74936.69;;;-144.65;75.89
5146;BME280;2591;48.144;15.152;2023-07-22T06:28:21;74924.47;;;-144.65;75.07
5146;BME280;2591;48.144;15.152;2023-07-22T06:31:07;74940.78;;;-144.65;75.64
5146;BME280;2591;48.144;15.152;2023-07-22T06:33:54;74930.56;;;-144.65;74.17
5146;BME280;2591;48.144;15.152;2023-07-22T06:36:40;74928.53;;;-144.65;75.17
5146;BME280;2591;48.144;15.152;2023-07-22T06:39:27;74924.47;;;-144.65;74.44
5146;BME280;2591;48.144;15.152;2023-07-22T06:42:15;74930.56;;;-144.65;73.09
5146;BME280;2591;48.144;15.152;2023-07-22T06:45:02;74934.66;;;-144.65;74.37
5146;BME280;2591;48.144;15.152;2023-07-22T06:47:48;74908.16;;;-144.65;74.08
5146;BME280;2591;48.144;15.152;2023-07-22T06:50:35;74900.00;;;-144.65;74.50
5146;BME280;2591;48.144;15.152;2023-07-22T06:53:21;74871.47;;;-144.65;72.54
5146;BME280;2591;48.144;15.152;2023-07-22T06:56:08;74867.41;;;-144.65;71.00
5146;BME280;2591;48.144;15.152;2023-07-22T06:58:55;74865.34;;;-144.65;71.20
5146;BME280;2591;48.144;15.152;2023-07-22T07:01:42;74883.69;;;-144.65;70.99
5146;BME280;2591;48.144;15.152;2023-07-22T07:04:28;74879.63;;;-144.65;71.35
5146;BME280;2591;48.144;15.152;2023-07-22T07:07:15;74877.59;;;-144.65;70.03
5146;BME280;2591;48.144;15.152;2023-07-22T07:10:02;74867.41;;;-144.65;68.74
5146;BME280;2591;48.144;15.152;2023-07-22T07:12:49;74871.47;;;-144.65;69.82
5146;BME280;2591;48.144;15.152;2023-07-22T07:15:36;74863.31;;;-144.65;69.29
5146;BME280;2591;48.144;15.152;2023-07-22T07:18:23;74867.41;;;-144.65;69.72
5146;BME280;2591;48.144;15.152;2023-07-22T07:21:11;74871.47;;;-144.65;70.15
5146;BME280;2591;48.144;15.152;2023-07-22T07:23:58;74859.25;;;-144.65;69.85
5146;BME280;2591;48.144;15.152;2023-07-22T07:26:45;74863.31;;;-144.65;69.66
5146;BME280;2591;48.144;15.152;2023-07-22T07:29:32;74847.00;;;-144.65;69.78
5146;BME280;2591;48.144;15.152;2023-07-22T07:32:38;74851.09;;;-144.65;69.24
5146;BME280;2591;48.144;15.152;2023-07-22T07:35:25;74832.75;;;-144.65;69.56
5146;BME280;2591;48.144;15.152;2023-07-22T07:38:11;74814.41;;;-144.65;69.50
5146;BME280;2591;48.144;15.152;2023-07-22T07:40:59;74806.25;;;-144.65;68.33
5146;BME280;2591;48.144;15.152;2023-07-22T07:43:45;74808.28;;;-144.65;69.48
5146;BME280;2591;48.144;15.152;2023-07-22T07:46:32;74759.38;;;-144.65;68.29
5146;BME280;2591;48.144;15.152;2023-07-22T07:49:20;74722.69;;;-144.65;65.58
5146;BME280;2591;48.144;15.152;2023-07-22T07:52:06;74704.34;;;-144.65;64.62
5146;BME280;2591;48.144;15.152;2023-07-22T07:54:52;74728.81;;;-144.65;65.66
5146;BME280;2591;48.144;15.152;2023-07-22T07:57:39;74692.13;;;-144.65;64.30
5146;BME280;2591;48.144;15.152;2023-07-22T08:00:25;74700.28;;;-144.65;64.35
5146;BME280;2591;48.144;15.152;2023-07-22T08:03:12;74712.50;;;-144.65;64.70
5146;BME280;2591;48.144;15.152;2023-07-22T08:06:01;74686.00;;;-144.65;65.74
5146;BME280;2591;48.144;15.152;2023-07-22T08:08:47;74675.81;;;-144.65;63.60
5146;BME280;2591;48.144;15.152;2023-07-22T08:11:34;74626.91;;;-144.65;62.98
5146;BME280;2591;48.144;15.152;2023-07-22T08:14:21;74622.84;;;-144.65;62.38
5146;BME280;2591;48.144;15.152;2023-07-22T08:17:07;74612.66;;;-144.65;60.64
5146;BME280;2591;48.144;15.152;2023-07-22T08:19:53;74637.09;;;-144.65;59.91
5146;BME280;2591;48.144;15.152;2023-07-22T08:22:41;74651.38;;;-144.65;61.93
5146;BME280;2591;48.144;15.152;2023-07-22T08:25:27;74618.75;;;-144.65;62.95
5146;BME280;2591;48.144;15.152;2023-07-22T08:28:14;74584.13;;;-144.65;61.43
5146;BME280;2591;48.144;15.152;2023-07-22T08:31:01;74565.78;;;-144.65;58.94
5146;BME280;2591;48.144;15.152;2023-07-22T08:33:47;74590.22;;;-144.65;61.32
5146;BME280;2591;48.144;15.152;2023-07-22T08:36:34;74594.31;;;-144.65;57.98
5146;BME280;2591;48.144;15.152;2023-07-22T08:39:22;74610.63;;;-144.65;57.60
5146;BME280;2591;48.144;15.152;2023-07-22T08:42:09;74620.81;;;-144.65;58.40
5146;BME280;2591;48.144;15.152;2023-07-22T08:45:01;74596.34;;;-144.65;59.96
5146;BME280;2591;48.144;15.152;2023-07-22T08:47:50;74539.28;;;-144.65;58.30
5146;BME280;2591;48.144;15.152;2023-07-22T08:50:44;74504.63;;;-144.65;55.85
5146;BME280;2591;48.144;15.152;2023-07-22T08:53:30;74512.78;;;-144.65;56.96
5146;BME280;2591;48.144;15.152;2023-07-22T08:56:20;74445.53;;;-144.65;54.72
5146;BME280;2591;48.144;15.152;2023-07-22T08:59:06;74467.97;;;-144.65;56.67
5146;BME280;2591;48.144;15.152;2023-07-22T09:01:53;74443.50;;;-144.65;56.50
5146;BME280;2591;48.144;15.152;2023-07-22T09:04:40;74410.91;;;-144.65;56.39
5146;BME280;2591;48.144;15.152;2023-07-22T09:07:30;74378.28;;;-144.65;55.28
5146;BME280;2591;48.144;15.152;2023-07-22T09:10:17;74345.69;;;-144.65;53.10
5146;BME280;2591;48.144;15.152;2023-07-22T09:13:07;74351.81;;;-144.65;54.47
5146;BME280;2591;48.144;15.152;2023-07-22T09:15:57;74362.00;;;-144.65;52.68
5146;BME280;2591;48.144;15.152;2023-07-22T09:18:43;74370.16;;;-144.65;52.56
5146;BME280;2591;48.144;15.152;2023-07-22T09:21:32;74366.06;;;-144.65;52.80
5146;BME280;2591;48.144;15.152;2023-07-22T09:24:22;74349.78;;;-144.65;53.03
5146;BME280;2591;48.144;15.152;2023-07-22T09:27:10;74306.97;;;-144.65;52.70
5146;BME280;2591;48.144;15.152;2023-07-22T09:29:57;74302.91;;;-144.65;52.41
5146;BME280;2591;48.144;15.152;2023-07-22T09:32:44;74262.16;;;-144.65;53.15
5146;BME280;2591;48.144;15.152;2023-07-22T09:35:44;74243.81;;;-144.65;51.40
5146;BME280;2591;48.144;15.152;2023-07-22T09:38:30;74233.63;;;-144.65;51.66
5146;BME280;2591;48.144;15.152;2023-07-22T09:41:19;74211.22;;;-144.65;49.88
5146;BME280;2591;48.144;15.152;2023-07-22T09:44:09;74219.34;;;-144.65;48.74
5146;BME280;2591;48.144;15.152;2023-07-22T09:46:58;74223.44;;;-144.65;49.35
5146;BME280;2591;48.144;15.152;2023-07-22T09:49:45;74268.25;;;-144.65;50.96
5146;BME280;2591;48.144;15.152;2023-07-22T09:52:31;74235.66;;;-144.65;49.35
5146;BME280;2591;48.144;15.152;2023-07-22T09:55:19;74231.59;;;-144.65;49.09
5146;BME280;2591;48.144;15.152;2023-07-22T09:58:06;74217.31;;;-144.65;49.59
5146;BME280;2591;48.144;15.152;2023-07-22T10:00:54;74196.94;;;-144.65;48.61
5146;BME280;2591;48.144;15.152;2023-07-22T10:03:44;74194.91;;;-144.65;47.75
5146;BME280;2591;48.144;15.152;2023-07-22T10:06:32;74162.31;;;-144.65;48.29
5146;BME280;2591;48.144;15.152;2023-07-22T10:09:21;74113.41;;;-144.65;46.02
5146;BME280;2591;48.144;15.152;2023-07-22T10:12:11;74127.66;;;-144.65;47.33
5146;BME280;2591;48.144;15.152;2023-07-22T10:15:00;74101.16;;;-144.65;45.98
5146;BME280;2591;48.144;15.152;2023-07-22T10:17:49;74088.94;;;-144.65;46.33
5146;BME280;2591;48.144;15.152;2023-07-22T10:20:38;74097.09;;;-144.65;46.45
5146;BME280;2591;48.144;15.152;2023-07-22T10:23:28;74113.41;;;-144.65;45.81
5146;BME280;2591;48.144;15.152;2023-07-22T10:26:16;74056.34;;;-144.65;45.90
5146;BME280;2591;48.144;15.152;2023-07-22T10:29:10;74003.38;;;-144.65;45.23
5146;BME280;2591;48.144;15.152;2023-07-22T10:32:00;74046.16;;;-144.65;45.29
5146;BME280;2591;48.144;15.152;2023-07-22T10:34:48;74035.97;;;-144.65;43.67
5146;BME280;2591;48.144;15.152;2023-07-22T10:37:38;74080.78;;;-144.65;43.87
5146;BME280;2591;48.144;15.152;2023-07-22T10:40:31;74093.03;;;-144.65;43.91
5146;BME280;2591;48.144;15.152;2023-07-22T10:43:26;74074.69;;;-144.65;44.05
5146;BME280;2591;48.144;15.152;2023-07-22T10:46:17;74082.84;;;-144.65;43.59
5146;BME280;2591;48.144;15.152;2023-07-22T10:49:10;74064.50;;;-144.65;44.55
5146;BME280;2591;48.144;15.152;2023-07-22T10:51:59;73997.25;;;-144.65;43.48
5146;BME280;2591;48.144;15.152;2023-07-22T10:54:53;73950.41;;;-144.65;41.55
5146;BME280;2591;48.144;15.152;2023-07-22T10:57:48;74015.59;;;-144.65;42.66
5146;BME280;2591;48.144;15.152;2023-07-22T11:00:54;74048.19;;;-144.65;42.67
5146;BME280;2591;48.144;15.152;2023-07-22T11:04:06;73966.69;;;-144.65;43.12
5146;BME280;2591;48.144;15.152;2023-07-22T11:07:00;73917.78;;;-144.65;41.75
5146;BME280;2591;48.144;15.152;2023-07-22T11:09:53;73913.72;;;-144.65;42.38
5146;BME280;2591;48.144;15.152;2023-07-22T11:12:44;73911.69;;;-144.65;42.71
5146;BME280;2591;48.144;15.152;2023-07-22T11:15:34;73907.59;;;-144.65;40.22
5146;BME280;2591;48.144;15.152;2023-07-22T11:18:41;73925.94;;;-144.65;41.13
5146;BME280;2591;48.144;15.152;2023-07-22T11:21:30;73942.25;;;-144.65;42.92
5146;BME280;2591;48.144;15.152;2023-07-22T11:24:23;73895.38;;;-144.65;42.53
5146;BME280;2591;48.144;15.152;2023-07-22T11:27:17;73889.28;;;-144.65;43.79
5146;BME280;2591;48.144;15.152;2023-07-22T11:30:06;73877.03;;;-144.65;41.80
5146;BME280;2591;48.144;15.152;2023-07-22T11:33:02;73901.50;;;-144.65;41.54
5146;BME280;2591;48.144;15.152;2023-07-22T11:35:51;74005.41;;;-144.65;44.03
5146;BME280;2591;48.144;15.152;2023-07-22T11:38:45;74042.09;;;-144.65;44.31
5146;BME280;2591;48.144;15.152;2023-07-22T11:41:32;74050.22;;;-144.65;44.27
5146;BME280;2591;48.144;15.152;2023-07-22T11:44:21;74062.47;;;-144.65;45.11
5146;BME280;2591;48.144;15.152;2023-07-22T11:47:10;74060.41;;;-144.65;45.61
5146;BME280;2591;48.144;15.152;2023-07-22T11:50:05;74031.91;;;-144.65;46.31
5146;BME280;2591;48.144;15.152;2023-07-22T11:52:52;73938.16;;;-144.65;45.08
5146;BME280;2591;48.144;15.152;2023-07-22T11:55:38;73948.34;;;-144.65;44.77
5146;BME280;2591;48.144;15.152;2023-07-22T11:58:27;73970.78;;;-144.65;44.51
5146;BME280;2591;48.144;15.152;2023-07-22T12:01:15;73978.91;;;-144.65;44.25
5146;BME280;2591;48.144;15.152;2023-07-22T12:04:09;73940.22;;;-144.65;43.83
5146;BME280;2591;48.144;15.152;2023-07-22T12:06:56;73921.88;;;-144.65;42.87
5146;BME280;2591;48.144;15.152;2023-07-22T12:09:47;73972.81;;;-144.65;45.13
5146;BME280;2591;48.144;15.152;2023-07-22T12:12:34;73954.47;;;-144.65;44.24
5146;BME280;2591;48.144;15.152;2023-07-22T12:15:21;73934.09;;;-144.65;44.23
5146;BME280;2591;48.144;15.152;2023-07-22T12:18:10;73921.88;;;-144.65;44.22
5146;BME280;2591;48.144;15.152;2023-07-22T12:20:57;73899.44;;;-144.65;43.86
5146;BME280;2591;48.144;15.152;2023-07-22T12:23:45;73905.56;;;-144.65;44.41
5146;BME280;2591;48.144;15.152;2023-07-22T12:26:31;73903.53;;;-144.65;44.24
5146;BME280;2591;48.144;15.152;2023-07-22T12:29:17;73913.72;;;-144.65;44.23
5146;BME280;2591;48.144;15.152;2023-07-22T12:32:04;73917.78;;;-144.65;43.57
5146;BME280;2591;48.144;15.152;2023-07-22T12:34:52;73901.50;;;-144.65;43.70
5146;BME280;2591;48.144;15.152;2023-07-22T12:37:38;73942.25;;;-144.65;44.47
5146;BME280;2591;48.144;15.152;2023-07-22T12:40:25;74011.53;;;-144.65;44.36
5146;BME280;2591;48.144;15.152;2023-07-22T12:43:11;74042.09;;;-144.65;44.84
5146;BME280;2591;48.144;15.152;2023-07-22T12:45:57;74009.47;;;-144.65;45.30
5146;BME280;2591;48.144;15.152;2023-07-22T12:48:44;73978.91;;;-144.65;45.83
5146;BME280;2591;48.144;15.152;2023-07-22T12:51:31;73932.06;;;-144.65;45.44
5146;BME280;2591;48.144;15.152;2023-07-22T12:54:18;73911.69;;;-144.65;44.51
5146;BME280;2591;48.144;15.152;2023-07-22T12:57:04;73921.88;;;-144.65;44.93
5146;BME280;2591;48.144;15.152;2023-07-22T12:59:51;73907.59;;;-144.65;44.95
5146;BME280;2591;48.144;15.152;2023-07-22T13:02:37;73913.72;;;-144.65;43.30
5146;BME280;2591;48.144;15.152;2023-07-22T13:05:24;73974.84;;;-144.65;44.54
5146;BME280;2591;48.144;15.152;2023-07-22T13:08:13;74017.63;;;-144.65;44.56
5146;BME280;2591;48.144;15.152;2023-07-22T13:10:59;74046.16;;;-144.65;44.90
5146;BME280;2591;48.144;15.152;2023-07-22T13:13:45;74052.28;;;-144.65;45.61
5146;BME280;2591;48.144;15.152;2023-07-22T13:16:34;74007.44;;;-144.65;44.60
5146;BME280;2591;48.144;15.152;2023-07-22T13:19:23;73970.78;;;-144.65;44.79
5146;BME280;2591;48.144;15.152;2023-07-22T13:22:10;73966.69;;;-144.65;45.27
5146;BME280;2591;48.144;15.152;2023-07-22T13:24:57;73962.63;;;-144.65;45.36
5146;BME280;2591;48.144;15.152;2023-07-22T13:27:43;73991.16;;;-144.65;46.34
5146;BME280;2591;48.144;15.152;2023-07-22T13:30:30;73960.59;;;-144.65;45.56
5146;BME280;2591;48.144;15.152;2023-07-22T13:33:16;73946.31;;;-144.65;45.43
5146;BME280;2591;48.144;15.152;2023-07-22T13:36:06;73954.47;;;-144.65;45.24
5146;BME280;2591;48.144;15.152;2023-07-22T13:38:56;73893.34;;;-144.65;43.76
5146;BME280;2591;48.144;15.152;2023-07-22T13:41:48;73901.50;;;-144.65;44.79
5146;BME280;2591;48.144;15.152;2023-07-22T13:44:38;73877.03;;;-144.65;43.25
5146;BME280;2591;48.144;15.152;2023-07-22T13:47:27;73930.00;;;-144.65;44.69
5146;BME280;2591;48.144;15.152;2023-07-22T13:50:16;73919.84;;;-144.65;44.60
5146;BME280;2591;48.144;15.152;2023-07-22T13:53:14;73925.94;;;-144.65;44.90
5146;BME280;2591;48.144;15.152;2023-07-22T13:56:15;73921.88;;;-144.65;44.18
5146;BME280;2591;48.144;15.152;2023-07-22T13:59:08;73934.09;;;-144.65;44.73
5146;BME280;2591;48.144;15.152;2023-07-22T14:01:54;73923.91;;;-144.65;44.23
5146;BME280;2591;48.144;15.152;2023-07-22T14:04:43;73930.00;;;-144.65;44.79
5146;BME280;2591;48.144;15.152;2023-07-22T14:07:40;73909.66;;;-144.65;43.26
5146;BME280;2591;48.144;15.152;2023-07-22T14:10:33;73891.31;;;-144.65;43.99
5146;BME280;2591;48.144;15.152;2023-07-22T14:13:20;73868.91;;;-144.65;44.06
5146;BME280;2591;48.144;15.152;2023-07-22T14:16:13;73820.00;;;-144.65;44.91
5146;BME280;2591;48.144;15.152;2023-07-22T14:19:12;73746.66;;;-144.65;42.09
5146;BME280;2591;48.144;15.152;2023-07-22T14:22:01;73809.81;;;-144.65;41.89
5146;BME280;2591;48.144;15.152;2023-07-22T14:24:50;73820.00;;;-144.65;42.13
5146;BME280;2591;48.144;15.152;2023-07-22T14:27:47;73824.06;;;-144.65;43.32
5146;BME280;2591;48.144;15.152;2023-07-22T14:30:38;73795.53;;;-144.65;43.28
5146;BME280;2591;48.144;15.152;2023-07-22T14:33:26;73740.53;;;-144.65;42.93
5146;BME280;2591;48.144;15.152;2023-07-22T14:36:17;73748.69;;;-144.65;42.30
5146;BME280;2591;48.144;15.152;2023-07-22T14:39:03;73807.78;;;-144.65;42.93